Terminal Aerodrome Forecast
Issued by NWS Sioux Falls, SD

Home | Current Version | Previous Version | Graphics & Text | Print | Product List | Glossary On
Versions: 1 2 3 4 5 6 7 8 9 10 11 12 13
000
FTUS43 KFSD 221120
TAFFSD
TAF
KFSD 221120Z 2212/2312 16013KT P6SM SCT090 WS020/20040KT
     FM221400 18013G23KT P6SM FEW100
     FM221700 19018G27KT P6SM FEW250
     FM230200 17014G25KT P6SM FEW250
     FM230600 17014G23KT P6SM FEW250 WS020/21048KT=

USA.gov is the U.S. government's official web portal to all federal, state and local government web resources and services.